Terminal Aerodrome Forecast
Issued by NWS Mt. Holly, NJ

Home | Current Version | Previous Version | Text Only | Print | Product List | Glossary On
Versions: 1 2 3 4 5 6 7 8 9 10 11 12 13 14 15 16 17 18 19 20 21 22 23
000
FTUS41 KPHI 300521
TAFRDG
TAF
KRDG 300521Z 3006/0106 16004KT P6SM SCT100
     FM300900 VRB02KT P6SM BKN100
      TEMPO 3009/3013 -SHRA
     FM301300 15005KT P6SM BKN060
     FM301500 18010G17KT P6SM SHRA SCT035 BKN050 PROB30 3019/3022
      4SM TSRA BKN050CB
     FM302200 16006KT P6SM SHRA SCT035 BKN050
      TEMPO 3022/0101 5SM TSRA BR BKN035CB
     FM010300 15004KT 4SM -SHRA BR SCT035 BKN050=

USA.gov is the U.S. government's official web portal to all federal, state and local government web resources and services.